createdAt,value
2019-02-07T00:02:24.969Z,4.70
2019-02-07T00:07:24.781Z,4.50
2019-02-07T00:12:24.343Z,4.50
2019-02-07T00:17:23.870Z,4.40
2019-02-07T00:22:23.829Z,4.40
2019-02-07T00:27:23.370Z,4.30
2019-02-07T00:32:22.894Z,4.20
2019-02-07T00:37:22.421Z,4.10
2019-02-07T00:42:21.948Z,4.10
2019-02-07T00:47:21.599Z,3.90
2019-02-07T00:52:21.126Z,4.00
2019-02-07T00:57:20.733Z,3.90
2019-02-07T01:02:20.265Z,3.90
2019-02-07T01:07:19.813Z,3.90
2019-02-07T01:12:19.346Z,3.90
2019-02-07T01:17:18.949Z,3.90
2019-02-07T01:22:18.484Z,3.90
2019-02-07T01:27:18.017Z,3.90
2019-02-07T01:32:17.732Z,3.80
2019-02-07T01:37:17.270Z,3.80
2019-02-07T01:42:16.805Z,3.80
2019-02-07T01:47:16.819Z,3.80
2019-02-07T01:52:16.357Z,3.80
2019-02-07T01:57:15.885Z,3.70
2019-02-07T02:02:15.693Z,3.70
2019-02-07T02:07:15.233Z,3.70
2019-02-07T02:12:15.939Z,3.70
2019-02-07T02:17:15.481Z,3.80
2019-02-07T02:22:15.014Z,3.70
2019-02-07T02:27:14.556Z,3.60
2019-02-07T02:32:14.100Z,3.70
2019-02-07T02:37:13.634Z,3.70
2019-02-07T02:42:13.161Z,3.50
2019-02-07T02:47:12.710Z,3.30
2019-02-07T02:52:12.421Z,3.30
2019-02-07T02:57:11.958Z,3.30
2019-02-07T03:02:37.560Z,3.30
2019-02-07T03:07:59.090Z,3.20
2019-02-07T03:13:16.845Z,3.20
2019-02-07T03:18:38.594Z,3.20
2019-02-07T03:24:00.495Z,3.20
2019-02-07T03:29:11.178Z,3.20
2019-02-07T03:34:27.828Z,3.10
2019-02-07T03:39:40.625Z,3.00
2019-02-07T03:44:48.768Z,2.90
2019-02-07T03:50:01.696Z,2.90
2019-02-07T03:55:13.717Z,2.80
2019-02-07T04:00:26.743Z,2.70
2019-02-07T04:05:36.318Z,2.60
2019-02-07T04:10:54.549Z,2.60
2019-02-07T04:16:15.483Z,2.70
2019-02-07T04:21:25.656Z,2.80
2019-02-07T04:26:50.563Z,2.70
2019-02-07T04:32:06.506Z,2.80
2019-02-07T04:37:18.019Z,2.70
2019-02-07T04:42:29.179Z,2.70
2019-02-07T04:47:46.733Z,2.70
2019-02-07T04:53:08.456Z,2.70
2019-02-07T04:58:26.311Z,2.80
2019-02-07T05:03:35.657Z,2.80
2019-02-07T05:08:42.454Z,2.80
2019-02-07T05:13:55.599Z,2.70
2019-02-07T05:19:20.108Z,2.60
2019-02-07T05:24:48.968Z,2.60
2019-02-07T05:30:00.230Z,2.60
2019-02-07T05:35:17.830Z,2.60
2019-02-07T05:40:24.846Z,2.60
2019-02-07T05:45:43.461Z,2.50
2019-02-07T05:51:01.368Z,2.50
2019-02-07T05:56:10.531Z,2.40
2019-02-07T06:01:28.980Z,2.50
2019-02-07T06:06:52.079Z,2.40
2019-02-07T06:12:10.862Z,2.40
2019-02-07T06:17:28.847Z,2.40
2019-02-07T06:22:50.534Z,2.40
2019-02-07T06:28:02.323Z,2.40
2019-02-07T06:33:15.090Z,2.40
2019-02-07T06:38:24.718Z,2.50
2019-02-07T06:43:39.390Z,2.40
2019-02-07T06:49:00.101Z,2.40
2019-02-07T06:54:17.476Z,2.50
2019-02-07T06:59:27.825Z,2.50
2019-02-07T07:04:45.253Z,2.60
2019-02-07T07:10:08.750Z,2.70
2019-02-07T07:15:16.930Z,2.70
2019-02-07T07:20:31.825Z,2.90
2019-02-07T07:25:49.121Z,2.80
2019-02-07T07:31:13.494Z,2.80
2019-02-07T07:36:31.233Z,2.80
2019-02-07T07:41:58.065Z,2.80
2019-02-07T07:47:10.176Z,3.00
2019-02-07T07:52:31.241Z,3.00
2019-02-07T07:57:43.075Z,3.00
2019-02-07T08:03:01.213Z,3.10
2019-02-07T08:08:18.518Z,3.00
2019-02-07T08:13:46.538Z,3.10
2019-02-07T08:19:14.630Z,3.10
2019-02-07T08:24:32.151Z,3.10
2019-02-07T08:29:51.869Z,3.10
2019-02-07T08:35:00.718Z,3.00
2019-02-07T08:40:18.816Z,3.10
2019-02-07T08:45:44.739Z,3.10
2019-02-07T08:51:19.870Z,3.10
2019-02-07T08:56:44.058Z,3.20
2019-02-07T09:01:58.951Z,3.20
2019-02-07T09:07:17.609Z,3.40
2019-02-07T09:12:25.231Z,3.40
2019-02-07T09:17:42.555Z,3.60
2019-02-07T09:22:58.679Z,3.60
2019-02-07T09:28:15.087Z,3.70
2019-02-07T09:33:33.106Z,3.80
2019-02-07T09:38:41.794Z,3.90
2019-02-07T09:43:59.466Z,3.90
2019-02-07T09:49:12.574Z,4.20
2019-02-07T09:54:37.174Z,4.40
2019-02-07T09:59:52.117Z,4.50
2019-02-07T10:05:02.023Z,4.60
2019-02-07T10:10:24.183Z,5.20
2019-02-07T10:15:41.006Z,5.20
2019-02-07T10:20:55.681Z,5.20
2019-02-07T10:26:06.564Z,5.50
2019-02-07T10:31:18.076Z,5.90
2019-02-07T10:36:39.874Z,7.50
2019-02-07T10:41:56.530Z,8.80
2019-02-07T10:47:12.215Z,9.10
2019-02-07T10:52:40.291Z,8.10
2019-02-07T10:58:02.279Z,7.90
2019-02-07T11:03:12.443Z,7.40
2019-02-07T11:08:37.443Z,7.20
2019-02-07T11:13:52.530Z,7.00
2019-02-07T11:19:07.973Z,7.00
2019-02-07T11:24:26.694Z,6.80
2019-02-07T11:29:48.497Z,7.00
2019-02-07T11:35:32.095Z,7.30
2019-02-07T11:41:02.894Z,7.30
2019-02-07T11:46:16.447Z,7.10
2019-02-07T11:51:34.105Z,6.80
2019-02-07T11:56:52.634Z,6.70
2019-02-07T12:02:14.673Z,6.60
2019-02-07T12:07:33.838Z,6.50
2019-02-07T12:12:56.429Z,6.80
2019-02-07T12:18:33.092Z,6.50
2019-02-07T12:24:00.088Z,6.60
2019-02-07T12:29:17.669Z,6.60
2019-02-07T12:34:24.618Z,6.50
2019-02-07T12:39:33.765Z,6.10
2019-02-07T12:44:51.127Z,6.20
2019-02-07T12:50:03.630Z,6.20
2019-02-07T12:55:09.306Z,6.30
2019-02-07T13:00:43.027Z,6.40
2019-02-07T13:06:11.367Z,6.20
2019-02-07T13:11:22.622Z,6.20
2019-02-07T13:16:39.966Z,6.30
2019-02-07T13:21:59.695Z,6.40
2019-02-07T13:27:17.303Z,6.20
2019-02-07T13:32:35.189Z,6.10
2019-02-07T13:37:47.363Z,6.20
2019-02-07T13:42:54.657Z,6.40
2019-02-07T13:48:12.803Z,6.40
2019-02-07T13:53:24.013Z,6.30
2019-02-07T13:58:29.687Z,6.10
2019-02-07T14:03:41.282Z,5.90
2019-02-07T14:09:02.754Z,5.90
2019-02-07T14:14:22.222Z,5.80
2019-02-07T14:19:33.729Z,5.80
2019-02-07T14:24:47.345Z,5.80
2019-02-07T14:30:04.911Z,5.70
2019-02-07T14:35:31.810Z,5.90
2019-02-07T14:41:02.908Z,5.90
2019-02-07T14:46:20.491Z,5.80
2019-02-07T14:51:20.103Z,5.80
2019-02-07T14:56:19.641Z,6.00
2019-02-07T15:01:19.554Z,6.10
2019-02-07T15:06:19.522Z,6.10
2019-02-07T15:11:19.059Z,5.90
2019-02-07T15:16:18.992Z,5.90
2019-02-07T15:21:18.521Z,5.90
2019-02-07T15:26:18.075Z,5.90
2019-02-07T15:31:17.819Z,5.80
2019-02-07T15:36:17.596Z,5.70
2019-02-07T15:41:17.278Z,5.90
2019-02-07T15:46:17.180Z,5.80
2019-02-07T15:51:17.168Z,5.80
2019-02-07T15:56:16.716Z,5.50
2019-02-07T16:01:24.353Z,5.30
2019-02-07T16:06:23.893Z,5.50
2019-02-07T16:11:23.435Z,5.60
2019-02-07T16:16:23.110Z,5.10
2019-02-07T16:21:22.645Z,5.10
2019-02-07T16:26:22.558Z,5.10
2019-02-07T16:31:22.102Z,5.00
2019-02-07T16:36:22.002Z,4.90
2019-02-07T16:41:22.000Z,4.90
2019-02-07T16:46:22.440Z,4.80
2019-02-07T16:51:22.266Z,4.90
2019-02-07T16:56:21.838Z,4.90
2019-02-07T17:01:21.476Z,5.10
2019-02-07T17:06:21.254Z,4.90
2019-02-07T17:11:21.160Z,4.80
2019-02-07T17:16:22.695Z,4.80
2019-02-07T17:21:22.482Z,4.70
2019-02-07T17:26:22.094Z,4.70
2019-02-07T17:31:21.622Z,4.70
2019-02-07T17:36:21.180Z,4.60
2019-02-07T17:41:20.706Z,4.60
2019-02-07T17:46:20.233Z,4.70
2019-02-07T17:51:23.316Z,4.80
2019-02-07T17:56:21.066Z,4.80
2019-02-07T18:01:20.613Z,4.70
2019-02-07T18:06:20.421Z,4.70
2019-02-07T18:11:20.026Z,4.50
2019-02-07T18:16:19.613Z,4.50
2019-02-07T18:21:19.227Z,4.40
2019-02-07T18:26:18.779Z,4.40
2019-02-07T18:31:18.322Z,4.40
2019-02-07T18:36:17.854Z,4.40
2019-02-07T18:41:17.385Z,4.40
2019-02-07T18:46:16.919Z,4.30
2019-02-07T18:51:16.832Z,4.30
2019-02-07T18:56:19.035Z,4.40
2019-02-07T19:01:18.673Z,4.60
2019-02-07T19:06:18.663Z,4.60
2019-02-07T19:11:18.210Z,4.50
2019-02-07T19:16:18.809Z,4.50
2019-02-07T19:21:18.572Z,4.50
2019-02-07T19:26:18.187Z,4.60
2019-02-07T19:31:17.800Z,4.60
2019-02-07T19:36:17.659Z,4.60
2019-02-07T19:41:17.866Z,4.60
2019-02-07T19:46:17.581Z,4.70
2019-02-07T19:51:17.170Z,4.60
2019-02-07T19:56:16.710Z,4.70
2019-02-07T20:01:16.249Z,4.60
2019-02-07T20:06:15.901Z,4.70
2019-02-07T20:11:15.628Z,4.70
2019-02-07T20:16:15.583Z,4.70
2019-02-07T20:21:15.380Z,4.60
2019-02-07T20:26:14.934Z,4.50
2019-02-07T20:31:14.491Z,4.50
2019-02-07T20:36:14.094Z,4.50
2019-02-07T20:41:13.886Z,4.40
2019-02-07T20:46:13.420Z,4.40
2019-02-07T20:51:13.134Z,4.40
2019-02-07T20:56:12.661Z,4.40
2019-02-07T21:01:12.199Z,4.40
2019-02-07T21:06:11.811Z,4.30
2019-02-07T21:11:12.415Z,4.30
2019-02-07T21:16:13.050Z,4.40
2019-02-07T21:21:12.626Z,4.30
2019-02-07T21:26:12.354Z,4.30
2019-02-07T21:31:11.922Z,4.30
2019-02-07T21:36:11.666Z,4.40
2019-02-07T21:41:11.279Z,4.30
2019-02-07T21:46:10.894Z,4.30
2019-02-07T21:51:10.618Z,4.30
2019-02-07T21:56:10.693Z,4.30
2019-02-07T22:01:10.234Z,4.20
2019-02-07T22:06:09.946Z,4.20
2019-02-07T22:11:09.846Z,4.20
2019-02-07T22:16:09.391Z,4.20
2019-02-07T22:21:09.007Z,4.20
2019-02-07T22:26:08.743Z,4.30
2019-02-07T22:31:08.274Z,4.30
2019-02-07T22:36:07.812Z,4.30
2019-02-07T22:41:07.359Z,4.40
2019-02-07T22:46:06.997Z,4.40
2019-02-07T22:51:06.594Z,4.30
2019-02-07T22:56:06.139Z,4.40
2019-02-07T23:01:43.190Z,4.30
2019-02-07T23:06:42.976Z,4.30
2019-02-07T23:11:43.491Z,4.40
2019-02-07T23:16:43.634Z,4.30
2019-02-07T23:21:43.251Z,4.30
2019-02-07T23:26:43.766Z,4.40
2019-02-07T23:31:44.377Z,4.40
2019-02-07T23:36:44.060Z,4.40
2019-02-07T23:41:44.813Z,4.40
2019-02-07T23:46:44.397Z,4.40
2019-02-07T23:51:43.948Z,4.30
2019-02-07T23:56:43.485Z,4.40
